Time;durP1;ratioP1;P1;durP2;ratioP2;P2;SDS_P1;SDS_P2;PMS_P1;PMS_P2;Temp;Humidity;BMP_temperature;BMP_pressure;BME280_temperature;BME280_humidity;BME280_pressure;Samples;Min_cycle;Max_cycle;Signal;HPM_P1;HPM_P2
2022/06/14 00:00:56;;;;;;;128.98;116.63;;;13.60;91.70;;;;;;5071645;28;20057;-75
2022/06/14 00:03:24;;;;;;;124.43;112.95;;;13.60;91.70;;;;;;5072121;28;20049;-75
2022/06/14 00:05:53;;;;;;;127.22;114.97;;;13.60;91.70;;;;;;5073199;28;20165;-75
2022/06/14 00:08:22;;;;;;;129.65;117.07;;;13.60;91.80;;;;;;5071496;28;20463;-75
2022/06/14 00:10:50;;;;;;;127.60;115.65;;;13.60;91.80;;;;;;5071545;28;20471;-75
2022/06/14 00:13:17;;;;;;;125.90;114.00;;;13.60;91.80;;;;;;5071743;28;20056;-75
2022/06/14 00:15:45;;;;;;;127.65;115.65;;;13.50;91.70;;;;;;5071583;28;20053;-75
2022/06/14 00:18:12;;;;;;;123.40;111.75;;;13.50;91.90;;;;;;5071378;28;20619;-75
2022/06/14 00:20:40;;;;;;;123.25;111.40;;;13.50;92.00;;;;;;5073060;28;20477;-75
2022/06/14 00:23:09;;;;;;;124.35;112.38;;;13.50;92.20;;;;;;5071423;28;20115;-75
2022/06/14 00:25:38;;;;;;;125.57;113.13;;;13.50;92.20;;;;;;5071744;28;20075;-75
2022/06/14 00:28:07;;;;;;;123.13;111.55;;;13.50;92.20;;;;;;5072522;28;20055;-75
2022/06/14 00:30:35;;;;;;;123.47;111.68;;;13.40;92.00;;;;;;5071224;28;20052;-75
2022/06/14 00:33:02;;;;;;;124.15;112.10;;;13.40;92.10;;;;;;5072741;28;20092;-75
2022/06/14 00:35:29;;;;;;;123.35;111.65;;;13.40;92.20;;;;;;5071544;28;20080;-75
2022/06/14 00:37:56;;;;;;;123.35;111.45;;;13.30;92.40;;;;;;5070764;28;20584;-75
2022/06/14 00:40:27;;;;;;;124.80;112.75;;;13.20;92.40;;;;;;5071504;28;20127;-75
2022/06/14 00:42:55;;;;;;;123.35;111.40;;;13.20;92.50;;;;;;5071399;28;20060;-75
2022/06/14 00:45:59;;;;;;;124.20;112.45;;;13.10;92.50;;;;;;5071541;28;20146;-75
2022/06/14 00:48:28;;;;;;;124.03;112.35;;;13.10;92.20;;;;;;5072116;28;20049;-75
2022/06/14 00:51:01;;;;;;;123.70;111.88;;;13.20;92.50;;;;;;5072656;28;20045;-75
2022/06/14 00:53:31;;;;;;;124.65;113.03;;;13.10;92.50;;;;;;5070931;28;20069;-75
2022/06/14 00:56:03;;;;;;;124.00;112.32;;;13.10;92.50;;;;;;5070751;28;20059;-74
2022/06/14 00:58:36;;;;;;;124.45;112.47;;;13.10;92.50;;;;;;5072133;28;20111;-75
2022/06/14 01:01:08;;;;;;;124.20;112.25;;;13.10;92.40;;;;;;5072441;28;20605;-75
2022/06/14 01:03:40;;;;;;;124.25;112.53;;;13.10;92.50;;;;;;5071121;28;20072;-75
2022/06/14 01:06:12;;;;;;;123.97;112.13;;;13.00;92.50;;;;;;5072225;28;20064;-75
2022/06/14 01:08:44;;;;;;;124.85;112.93;;;13.00;92.50;;;;;;5070643;28;20128;-75
2022/06/14 01:11:19;;;;;;;124.60;112.90;;;13.00;92.40;;;;;;5072526;28;20053;-75
2022/06/14 01:13:47;;;;;;;126.05;114.00;;;13.00;92.40;;;;;;5070673;28;20513;-75
2022/06/14 01:16:15;;;;;;;125.13;113.10;;;12.90;92.20;;;;;;5072507;28;20045;-75
2022/06/14 01:18:42;;;;;;;124.35;112.40;;;12.90;92.30;;;;;;5071655;28;20147;-75
2022/06/14 01:21:09;;;;;;;123.20;111.50;;;12.90;92.50;;;;;;5072103;28;20135;-75
2022/06/14 01:23:38;;;;;;;124.93;112.95;;;12.90;92.50;;;;;;5072079;28;20053;-75
2022/06/14 01:26:10;;;;;;;123.82;112.03;;;12.90;92.50;;;;;;5070846;28;20156;-75
2022/06/14 01:28:39;;;;;;;123.25;111.72;;;12.90;92.50;;;;;;5070503;28;20127;-75
2022/06/14 01:31:06;;;;;;;123.22;111.60;;;12.90;92.40;;;;;;5071971;28;20133;-75
2022/06/14 01:33:36;;;;;;;122.85;111.57;;;12.90;92.20;;;;;;5072067;28;20057;-75
2022/06/14 01:36:08;;;;;;;122.88;111.38;;;12.80;92.30;;;;;;5071882;28;20135;-75
2022/06/14 01:38:37;;;;;;;123.93;112.15;;;12.80;92.40;;;;;;5070296;28;20140;-75
2022/06/14 01:41:11;;;;;;;122.40;110.78;;;12.80;92.50;;;;;;5053871;28;20051;-74
2022/06/14 01:43:51;;;;;;;122.60;111.22;;;12.70;92.50;;;;;;5072427;28;20506;-75
2022/06/14 01:46:24;;;;;;;122.55;110.82;;;12.70;92.40;;;;;;5075436;28;20144;-75
2022/06/14 01:51:50;;;;;;;123.03;111.13;;;12.70;92.50;;;;;;5073719;28;20049;-75
2022/06/14 01:51:58;;;;;;;122.53;110.72;;;12.70;92.50;;;;;;5074121;28;20053;-75
2022/06/14 01:54:35;;;;;;;124.72;112.85;;;12.60;92.50;;;;;;5075459;28;20102;-75
2022/06/14 01:57:08;;;;;;;125.28;113.40;;;12.60;92.60;;;;;;5073114;28;20045;-74
2022/06/14 01:59:47;;;;;;;123.10;111.28;;;12.60;92.80;;;;;;5075489;28;20064;-75
2022/06/14 02:02:27;;;;;;;123.82;111.85;;;12.50;92.80;;;;;;5074117;28;20053;-74
2022/06/14 02:05:01;;;;;;;120.68;108.97;;;12.50;92.70;;;;;;5075603;28;20063;-75
2022/06/14 02:07:35;;;;;;;122.85;111.03;;;12.50;92.80;;;;;;5073210;28;20049;-75
2022/06/14 02:10:10;;;;;;;123.25;111.25;;;12.40;92.80;;;;;;5074911;28;20080;-75
2022/06/14 02:12:46;;;;;;;122.43;110.72;;;12.40;92.80;;;;;;5073829;28;20045;-75
2022/06/14 02:15:22;;;;;;;121.82;110.13;;;12.40;92.90;;;;;;5075332;28;20053;-74
2022/06/14 02:17:57;;;;;;;122.70;110.80;;;12.40;92.90;;;;;;5056475;28;20175;-75
2022/06/14 02:20:28;;;;;;;121.95;110.55;;;12.30;92.90;;;;;;5075109;28;20060;-75
2022/06/14 02:23:02;;;;;;;123.88;111.43;;;12.30;92.80;;;;;;5073616;28;20593;-75
2022/06/14 02:25:33;;;;;;;123.82;111.78;;;12.30;93.00;;;;;;5073698;28;20057;-75
2022/06/14 02:28:05;;;;;;;123.82;111.75;;;12.30;93.00;;;;;;5073227;28;20503;-75
2022/06/14 02:30:38;;;;;;;122.45;110.55;;;12.30;93.00;;;;;;5073502;28;20578;-75
2022/06/14 02:33:10;;;;;;;121.45;109.55;;;12.20;93.00;;;;;;5074521;28;20045;-75
2022/06/14 02:35:40;;;;;;;121.63;110.03;;;12.20;93.00;;;;;;5074525;28;20198;-75
2022/06/14 02:38:13;;;;;;;121.95;110.35;;;12.20;93.10;;;;;;5072838;28;20172;-75
2022/06/14 02:40:45;;;;;;;120.00;108.63;;;12.20;93.30;;;;;;5072841;28;20135;-75
2022/06/14 02:43:17;;;;;;;122.85;110.85;;;12.10;93.30;;;;;;5073463;28;20061;-75
2022/06/14 02:45:49;;;;;;;122.32;110.78;;;12.10;93.20;;;;;;5056399;28;20569;-75
2022/06/14 02:48:19;;;;;;;123.32;111.40;;;12.10;93.20;;;;;;5072861;28;20103;-75
2022/06/14 02:50:54;;;;;;;121.13;109.40;;;12.10;93.30;;;;;;5074482;28;20069;-75
2022/06/14 02:53:25;;;;;;;122.63;110.82;;;12.10;93.30;;;;;;5072467;28;20137;-75
2022/06/14 02:55:59;;;;;;;120.70;109.20;;;12.10;93.30;;;;;;5072427;28;20076;-75
2022/06/14 02:58:31;;;;;;;122.45;110.70;;;12.00;93.40;;;;;;5073703;28;20057;-74
2022/06/14 03:01:02;;;;;;;122.93;110.72;;;12.00;93.50;;;;;;5074036;28;20136;-75
2022/06/14 03:03:38;;;;;;;120.70;109.05;;;12.00;93.60;;;;;;5072718;28;20081;-74
2022/06/14 03:06:11;;;;;;;120.75;108.90;;;12.00;93.60;;;;;;5073940;28;20045;-75
2022/06/14 03:08:46;;;;;;;120.93;109.15;;;12.00;93.60;;;;;;5072238;28;20053;-75
2022/06/14 03:11:30;;;;;;;119.47;107.82;;;12.00;93.60;;;;;;5074312;28;20511;-75
2022/06/14 03:14:00;;;;;;;120.60;108.90;;;12.00;93.70;;;;;;5072706;28;20049;-74
2022/06/14 03:16:36;;;;;;;122.90;110.80;;;11.90;93.70;;;;;;5073657;28;20049;-75
2022/06/14 03:19:13;;;;;;;121.47;109.70;;;11.90;93.80;;;;;;5072339;28;20057;-74
2022/06/14 03:21:47;;;;;;;123.18;111.22;;;11.90;93.90;;;;;;5072476;28;20083;-74
2022/06/14 03:24:25;;;;;;;121.65;109.80;;;11.90;93.90;;;;;;5072482;28;20602;-75
2022/06/14 03:27:02;;;;;;;121.55;109.85;;;11.90;93.90;;;;;;5072379;28;20102;-75
2022/06/14 03:29:37;;;;;;;120.88;109.28;;;11.90;93.90;;;;;;5072231;28;20511;-75
2022/06/14 03:32:12;;;;;;;120.38;108.35;;;11.80;94.00;;;;;;5073791;28;20084;-75
2022/06/14 03:34:43;;;;;;;121.10;109.27;;;11.80;94.00;;;;;;5072470;28;20069;-74
2022/06/14 03:37:14;;;;;;;122.80;110.85;;;11.80;94.00;;;;;;5073257;28;20135;-75
2022/06/14 03:39:44;;;;;;;120.00;108.35;;;11.80;94.00;;;;;;5073612;28;20057;-75
2022/06/14 03:42:14;;;;;;;123.15;110.88;;;11.80;93.90;;;;;;5072411;28;20134;-75
2022/06/14 03:44:42;;;;;;;122.60;110.50;;;11.80;93.90;;;;;;5072257;28;20194;-75
2022/06/14 03:47:16;;;;;;;125.07;112.60;;;11.80;94.00;;;;;;5072005;28;20042;-74
2022/06/14 03:49:47;;;;;;;122.47;110.22;;;11.80;94.10;;;;;;5072309;28;20076;-75
2022/06/14 03:52:27;;;;;;;122.32;110.45;;;11.80;94.10;;;;;;5073626;28;20053;-75
2022/06/14 03:55:07;;;;;;;120.53;108.75;;;11.80;94.20;;;;;;5072520;28;20083;-75
2022/06/14 03:57:55;;;;;;;123.13;111.05;;;11.80;94.30;;;;;;5054741;28;20135;-74
2022/06/14 04:00:33;;;;;;;122.60;110.70;;;11.80;94.40;;;;;;5072145;28;20049;-75
2022/06/14 04:03:14;;;;;;;123.45;111.15;;;11.80;94.30;;;;;;5072232;28;20045;-75
2022/06/14 04:05:55;;;;;;;123.65;111.45;;;11.80;94.50;;;;;;5072823;28;20454;-75
2022/06/14 04:08:36;;;;;;;121.38;108.63;;;11.80;94.50;;;;;;5072801;28;20136;-74
2022/06/14 04:11:14;;;;;;;121.60;108.80;;;11.80;94.50;;;;;;5073179;28;20136;-74
2022/06/14 04:13:48;;;;;;;121.05;108.88;;;11.80;94.60;;;;;;5055032;28;20389;-74
2022/06/14 04:16:22;;;;;;;121.65;109.65;;;11.80;94.60;;;;;;5072052;28;20049;-74
2022/06/14 04:18:59;;;;;;;120.50;108.55;;;11.80;94.70;;;;;;5072626;28;20579;-74
2022/06/14 04:21:34;;;;;;;121.18;109.13;;;11.80;94.70;;;;;;5071837;28;20503;-75
2022/06/14 04:24:10;;;;;;;121.50;109.40;;;11.70;94.80;;;;;;5071792;28;20127;-74
2022/06/14 04:26:45;;;;;;;122.82;110.72;;;11.70;94.90;;;;;;5071593;28;20092;-74
2022/06/14 04:29:21;;;;;;;121.15;109.15;;;11.70;94.90;;;;;;5072696;28;20118;-74
2022/06/14 04:31:51;;;;;;;121.03;108.68;;;11.70;94.90;;;;;;5071544;28;20131;-74
2022/06/14 04:34:24;;;;;;;121.70;109.40;;;11.70;94.90;;;;;;5071578;28;20049;-74
2022/06/14 04:36:56;;;;;;;122.55;110.05;;;11.70;95.00;;;;;;5072639;28;20124;-75
2022/06/14 04:39:28;;;;;;;121.28;109.28;;;11.70;95.00;;;;;;5071365;28;20052;-74
2022/06/14 04:42:00;;;;;;;123.82;111.57;;;11.70;95.00;;;;;;5070429;28;20522;-75
2022/06/14 04:44:36;;;;;;;123.53;111.35;;;11.70;95.10;;;;;;5069854;28;20049;-74
2022/06/14 04:47:10;;;;;;;125.78;113.35;;;11.70;95.20;;;;;;5102271;27;20053;-74
2022/06/14 04:49:44;;;;;;;124.72;111.93;;;11.80;95.20;;;;;;5069246;28;20049;-74
2022/06/14 04:52:14;;;;;;;126.28;113.85;;;11.80;95.20;;;;;;5083897;28;20569;-74
2022/06/14 04:54:48;;;;;;;125.38;113.00;;;11.70;95.40;;;;;;5078876;28;20060;-75
2022/06/14 04:57:22;;;;;;;125.57;113.30;;;11.80;95.40;;;;;;5081182;28;20052;-75
2022/06/14 04:59:54;;;;;;;125.40;113.30;;;11.80;95.50;;;;;;4982067;27;20144;-75
2022/06/14 05:02:25;;;;;;;122.93;110.75;;;11.70;95.60;;;;;;5001311;28;20651;-75
2022/06/14 05:04:55;;;;;;;123.78;111.63;;;11.70;95.70;;;;;;5035538;28;20112;-76
2022/06/14 05:07:28;;;;;;;124.05;111.95;;;11.70;95.70;;;;;;5027877;28;20551;-75
2022/06/14 05:10:00;;;;;;;123.05;110.68;;;11.80;95.80;;;;;;5028791;28;20066;-74
2022/06/14 05:12:31;;;;;;;121.93;109.78;;;11.70;95.90;;;;;;5031054;28;20108;-75
2022/06/14 05:15:06;;;;;;;123.53;111.20;;;11.70;96.00;;;;;;5031358;28;20583;-74
2022/06/14 05:17:38;;;;;;;122.47;110.50;;;11.80;96.20;;;;;;5029712;28;20058;-75
2022/06/14 05:20:13;;;;;;;123.43;110.97;;;11.80;96.20;;;;;;5060884;28;20505;-75
2022/06/14 05:22:46;;;;;;;122.03;109.97;;;11.80;96.40;;;;;;5055463;28;20076;-74
2022/06/14 05:25:14;;;;;;;123.13;111.03;;;11.80;96.50;;;;;;5033364;28;20057;-74
2022/06/14 05:27:49;;;;;;;124.72;112.13;;;11.90;96.60;;;;;;5030982;28;20149;-74
2022/06/14 05:30:31;;;;;;;123.78;110.68;;;11.90;96.70;;;;;;5034056;28;20184;-75
2022/06/14 05:33:09;;;;;;;121.57;108.82;;;12.00;96.80;;;;;;5034700;28;20049;-75
2022/06/14 05:35:40;;;;;;;121.03;108.82;;;12.00;96.80;;;;;;5031213;28;20060;-76
2022/06/14 05:38:35;;;;;;;121.18;108.68;;;12.00;96.80;;;;;;5033662;28;20054;-75
2022/06/14 05:41:06;;;;;;;121.82;109.63;;;12.10;96.80;;;;;;5033662;28;20046;-75
2022/06/14 05:43:42;;;;;;;119.45;107.35;;;12.10;96.80;;;;;;5032082;28;20509;-74
2022/06/14 05:46:18;;;;;;;121.20;109.53;;;12.10;96.90;;;;;;5034510;28;20140;-75
2022/06/14 05:48:48;;;;;;;122.40;110.00;;;12.20;96.90;;;;;;5032699;28;20058;-75
2022/06/14 05:51:18;;;;;;;120.10;108.30;;;12.20;96.90;;;;;;5034205;28;20060;-75
2022/06/14 05:53:47;;;;;;;122.93;110.97;;;12.30;97.00;;;;;;5056188;28;20050;-75
2022/06/14 05:56:21;;;;;;;122.18;110.05;;;12.30;97.00;;;;;;5034614;28;20458;-75
2022/06/14 05:58:55;;;;;;;118.90;107.03;;;12.30;97.00;;;;;;5032760;28;20057;-75
2022/06/14 06:01:29;;;;;;;121.20;109.00;;;12.40;97.10;;;;;;5034095;28;20053;-73
2022/06/14 06:04:03;;;;;;;119.40;107.63;;;12.40;97.10;;;;;;5041834;28;20050;-75
2022/06/14 06:06:33;;;;;;;118.80;107.03;;;12.50;97.10;;;;;;5037062;28;20504;-75
2022/06/14 06:09:04;;;;;;;120.28;108.25;;;12.50;97.20;;;;;;5045671;28;20651;-75
2022/06/14 06:11:36;;;;;;;119.57;107.82;;;12.60;97.30;;;;;;5052831;28;20055;-75
2022/06/14 06:14:08;;;;;;;120.13;108.25;;;12.70;97.20;;;;;;5027847;28;20050;-74
2022/06/14 06:16:40;;;;;;;119.13;107.22;;;12.70;97.20;;;;;;5014385;28;20050;-74
2022/06/14 06:19:13;;;;;;;120.80;108.68;;;12.70;97.10;;;;;;5027415;28;20089;-74
2022/06/14 06:21:47;;;;;;;121.78;109.85;;;12.80;97.10;;;;;;5032963;28;20122;-74
2022/06/14 06:24:19;;;;;;;119.00;107.45;;;12.80;97.00;;;;;;5034287;28;20050;-75
2022/06/14 06:26:52;;;;;;;123.28;111.25;;;12.90;96.90;;;;;;5032551;28;20054;-74
2022/06/14 06:29:24;;;;;;;119.63;107.78;;;13.00;96.90;;;;;;5064805;28;20093;-75
2022/06/14 06:31:52;;;;;;;122.15;110.00;;;13.00;97.00;;;;;;5032817;28;20070;-75
2022/06/14 06:34:20;;;;;;;122.20;110.15;;;13.10;96.90;;;;;;5031865;28;20050;-74
2022/06/14 06:36:58;;;;;;;123.45;111.10;;;13.20;96.80;;;;;;5049518;28;20145;-75
2022/06/14 06:39:40;;;;;;;120.07;108.35;;;13.20;96.80;;;;;;5034301;28;20529;-75
2022/06/14 06:42:13;;;;;;;119.60;108.00;;;13.20;96.70;;;;;;5032859;28;20453;-75
2022/06/14 06:44:53;;;;;;;120.63;109.10;;;13.30;96.70;;;;;;5034050;28;20139;-75
2022/06/14 06:47:28;;;;;;;122.90;111.03;;;13.40;96.80;;;;;;5033000;28;20049;-75
2022/06/14 06:50:13;;;;;;;;;;;13.40;96.80;;;;;;5033997;28;20621;-75
2022/06/14 06:52:48;;;;;;;121.07;109.18;;;13.50;96.80;;;;;;5029874;28;20016;-75
2022/06/14 06:55:22;;;;;;;121.93;109.97;;;13.50;96.70;;;;;;5031974;28;20060;-75
2022/06/14 06:57:53;;;;;;;121.03;109.32;;;13.60;96.70;;;;;;5033051;28;20057;-75
2022/06/14 07:00:21;;;;;;;122.28;110.07;;;13.70;96.50;;;;;;5029396;28;20065;-76
2022/06/14 07:02:53;;;;;;;122.97;111.25;;;13.70;96.30;;;;;;5033112;28;20056;-76
2022/06/14 07:05:20;;;;;;;124.82;112.63;;;13.70;96.40;;;;;;5031661;28;20058;-75
2022/06/14 07:07:53;;;;;;;122.95;111.15;;;13.80;96.40;;;;;;5030421;28;20070;-76
2022/06/14 07:10:28;;;;;;;122.82;111.25;;;13.90;96.30;;;;;;5032066;28;20052;-76
2022/06/14 07:12:59;;;;;;;122.93;111.30;;;13.90;96.20;;;;;;5031862;28;20058;-75
2022/06/14 07:15:33;;;;;;;123.72;111.78;;;14.00;96.10;;;;;;5032824;28;20065;-76
2022/06/14 07:18:12;;;;;;;124.45;112.45;;;14.00;96.10;;;;;;5029983;28;20057;-76
2022/06/14 07:20:48;;;;;;;123.05;111.15;;;14.10;96.10;;;;;;5036442;28;20459;-76
2022/06/14 07:23:26;;;;;;;124.18;112.07;;;14.10;96.00;;;;;;5031989;28;20389;-76
2022/06/14 07:26:07;;;;;;;122.63;110.93;;;14.20;96.00;;;;;;5053486;28;20141;-76
2022/06/14 07:28:42;;;;;;;123.50;111.70;;;14.20;96.20;;;;;;5053787;28;20109;-76
2022/06/14 07:31:18;;;;;;;125.95;113.95;;;14.30;96.00;;;;;;5032491;28;20512;-75
2022/06/14 07:33:46;;;;;;;126.18;114.13;;;14.30;95.70;;;;;;5032683;28;20081;-75
2022/06/14 07:36:20;;;;;;;126.15;114.07;;;14.40;95.70;;;;;;5032659;28;20056;-75
2022/06/14 07:38:54;;;;;;;126.68;114.63;;;14.40;95.80;;;;;;5035378;28;20052;-75
2022/06/14 07:41:29;;;;;;;124.25;112.38;;;14.50;95.60;;;;;;5041825;28;20615;-75
2022/06/14 07:44:00;;;;;;;;;;;14.50;95.60;;;;;;5051782;28;20244;-75
2022/06/14 07:46:36;;;;;;;122.70;111.10;;;14.60;95.40;;;;;;5047399;28;20008;-75
2022/06/14 07:49:12;;;;;;;125.65;113.85;;;14.60;95.40;;;;;;5032632;28;20049;-75
2022/06/14 07:51:45;;;;;;;126.47;114.70;;;14.60;95.10;;;;;;5030951;28;20496;-75
2022/06/14 07:54:21;;;;;;;125.25;113.60;;;14.70;95.00;;;;;;5033193;28;20046;-74
2022/06/14 07:56:54;;;;;;;125.38;113.38;;;14.80;94.70;;;;;;5026450;28;20567;-76
2022/06/14 07:59:25;;;;;;;124.63;113.00;;;14.90;94.40;;;;;;5031008;28;20070;-76
2022/06/14 08:01:56;;;;;;;121.03;109.55;;;14.90;94.30;;;;;;5030265;28;20203;-76
2022/06/14 08:04:30;;;;;;;123.25;111.63;;;15.00;94.20;;;;;;5030547;28;20109;-75
2022/06/14 08:07:02;;;;;;;125.50;113.93;;;15.00;94.10;;;;;;5032907;28;20480;-75
2022/06/14 08:09:37;;;;;;;122.05;110.57;;;15.00;94.00;;;;;;5030474;28;20141;-74
2022/06/14 08:12:07;;;;;;;;;;;15.10;94.00;;;;;;5032625;28;20050;-75
2022/06/14 08:14:40;;;;;;;121.93;110.47;;;15.10;93.80;;;;;;5028881;28;19930;-75
2022/06/14 08:17:09;;;;;;;126.43;114.93;;;15.10;94.00;;;;;;5030212;28;20054;-76
2022/06/14 08:19:44;;;;;;;122.80;111.03;;;15.20;93.90;;;;;;5032296;28;20056;-76
2022/06/14 08:22:16;;;;;;;126.78;114.97;;;15.20;93.50;;;;;;5030833;28;20163;-76
2022/06/14 08:24:48;;;;;;;126.07;114.65;;;15.20;93.50;;;;;;5036918;28;20136;-75
2022/06/14 08:27:19;;;;;;;129.05;117.47;;;15.30;93.20;;;;;;5038308;28;20045;-75
2022/06/14 08:29:51;;;;;;;125.93;114.63;;;15.30;92.90;;;;;;5032091;28;20145;-76
2022/06/14 08:32:23;;;;;;;127.40;116.20;;;15.30;92.90;;;;;;5037742;28;20057;-75
2022/06/14 08:34:57;;;;;;;129.30;117.72;;;15.40;92.90;;;;;;5015123;28;20471;-75
2022/06/14 08:37:31;;;;;;;127.07;115.47;;;15.40;92.70;;;;;;5039477;28;20049;-76
2022/06/14 08:40:06;;;;;;;126.82;115.53;;;15.50;92.50;;;;;;5038137;28;20060;-75
2022/06/14 08:42:37;;;;;;;130.10;118.55;;;15.60;91.90;;;;;;5039043;28;20528;-75
2022/06/14 08:45:12;;;;;;;126.82;115.22;;;15.60;92.00;;;;;;5036582;28;20073;-75
2022/06/14 08:47:50;;;;;;;128.27;116.75;;;15.60;91.90;;;;;;5039723;28;20145;-75
2022/06/14 08:50:51;;;;;;;128.45;116.85;;;15.70;92.00;;;;;;5030000;28;20140;-76
2022/06/14 08:54:05;;;;;;;123.25;112.05;;;15.80;92.10;;;;;;5029266;28;20516;-71
2022/06/14 08:56:51;;;;;;;125.53;114.00;;;15.90;91.90;;;;;;5063835;28;20161;-75
2022/06/14 08:59:42;;;;;;;122.28;111.05;;;15.90;91.70;;;;;;5063655;28;20074;-76
2022/06/14 09:02:28;;;;;;;123.00;111.80;;;16.00;91.50;;;;;;5029193;28;20116;-76
2022/06/14 09:05:21;;;;;;;122.80;111.60;;;16.00;90.80;;;;;;5061913;28;20528;-76
2022/06/14 09:08:21;;;;;;;124.13;112.70;;;16.00;90.30;;;;;;5028381;28;20149;-77
2022/06/14 09:11:17;;;;;;;127.22;115.50;;;16.10;90.40;;;;;;5026780;28;20051;-77
2022/06/14 09:14:05;;;;;;;128.85;117.15;;;16.10;90.40;;;;;;5029924;28;20050;-77
2022/06/14 09:17:04;;;;;;;126.65;115.25;;;16.10;90.40;;;;;;5025295;28;20050;-77
2022/06/14 09:19:52;;;;;;;123.60;112.53;;;16.20;90.60;;;;;;5011660;28;20153;-77
2022/06/14 09:22:34;;;;;;;124.57;113.07;;;16.20;90.00;;;;;;5030018;28;20129;-77
2022/06/14 09:25:09;;;;;;;124.68;113.57;;;16.20;90.40;;;;;;5030809;28;20050;-77
2022/06/14 09:28:19;;;;;;;126.35;115.15;;;16.30;90.10;;;;;;5028541;28;20555;-77
2022/06/14 09:31:12;;;;;;;125.95;114.63;;;16.30;90.40;;;;;;5013207;28;20046;-77
2022/06/14 09:34:03;;;;;;;123.15;112.10;;;16.40;90.70;;;;;;5054248;28;20058;-77
2022/06/14 09:36:52;;;;;;;124.45;113.45;;;16.50;90.70;;;;;;4997570;28;20412;-77
2022/06/14 09:39:41;;;;;;;124.82;113.50;;;16.50;90.60;;;;;;5032800;28;20086;-76
2022/06/14 09:42:44;;;;;;;123.03;112.10;;;16.60;89.40;;;;;;5047348;28;20587;-76
2022/06/14 09:45:32;;;;;;;126.07;114.65;;;16.70;90.10;;;;;;5046919;28;20141;-76
2022/06/14 09:48:20;;;;;;;125.63;114.55;;;16.70;89.50;;;;;;5064268;28;20139;-76
2022/06/14 09:51:22;;;;;;;125.90;114.60;;;16.80;88.10;;;;;;5012047;28;20086;-77
2022/06/14 09:54:35;;;;;;;133.40;121.70;;;16.80;87.40;;;;;;5007418;28;20436;-77
2022/06/14 09:57:11;;;;;;;;;;;16.80;87.90;;;;;;5037546;28;20052;-76
2022/06/14 10:00:01;;;;;;;131.00;118.85;;;16.80;88.40;;;;;;5044361;28;19926;-76
2022/06/14 10:02:43;;;;;;;131.07;119.38;;;16.90;87.40;;;;;;5007626;28;20058;-77
2022/06/14 10:05:34;;;;;;;133.82;122.18;;;16.90;86.60;;;;;;5009916;28;20128;-77
2022/06/14 10:08:26;;;;;;;126.35;115.15;;;17.00;86.40;;;;;;5012516;28;20077;-76
2022/06/14 10:11:09;;;;;;;122.78;111.63;;;17.10;87.10;;;;;;5046748;28;20130;-76
2022/06/14 10:14:02;;;;;;;128.52;117.25;;;17.10;87.10;;;;;;5046713;28;20109;-76
2022/06/14 10:17:08;;;;;;;129.82;118.55;;;17.20;85.80;;;;;;5013574;28;20152;-76
2022/06/14 10:20:02;;;;;;;129.02;117.90;;;17.30;86.30;;;;;;5021434;28;20085;-77
2022/06/14 10:22:42;;;;;;;131.32;119.95;;;17.40;85.80;;;;;;5031988;28;20061;-77
2022/06/14 10:25:16;;;;;;;130.57;119.40;;;17.50;85.40;;;;;;5032065;28;20066;-77
2022/06/14 10:30:45;;;;;;;128.43;117.22;;;17.60;84.40;;;;;;5030805;28;20200;-77
2022/06/14 10:33:26;;;;;;;127.57;116.55;;;17.80;84.20;;;;;;5031469;28;20185;-77
2022/06/14 10:36:08;;;;;;;130.23;118.90;;;17.80;83.90;;;;;;5028640;28;20563;-77
2022/06/14 10:38:59;;;;;;;129.10;117.90;;;17.90;82.70;;;;;;5031591;28;20078;-77
2022/06/14 10:41:36;;;;;;;128.35;117.15;;;17.90;82.90;;;;;;5030407;28;20601;-77
2022/06/14 10:44:14;;;;;;;129.52;118.45;;;18.00;83.20;;;;;;5035024;28;20042;-77
2022/06/14 10:46:50;;;;;;;130.15;119.05;;;18.00;83.80;;;;;;5032241;28;20058;-77
2022/06/14 10:49:56;;;;;;;130.70;119.70;;;18.00;83.20;;;;;;5030332;28;20587;-77
2022/06/14 10:52:55;;;;;;;131.32;120.22;;;18.10;83.60;;;;;;5029593;28;20124;-77
2022/06/14 10:55:49;;;;;;;132.40;121.30;;;18.10;83.70;;;;;;5038240;28;20052;-75
2022/06/14 10:58:35;;;;;;;132.88;121.78;;;18.10;83.90;;;;;;4982553;28;20173;-75
2022/06/14 11:01:17;;;;;;;131.75;120.82;;;18.20;84.90;;;;;;5031750;28;20064;-76
2022/06/14 11:03:58;;;;;;;131.98;121.07;;;18.20;84.90;;;;;;5031168;28;20129;-77
2022/06/14 11:06:57;;;;;;;131.23;120.07;;;18.30;83.70;;;;;;5032087;28;20054;-77
2022/06/14 11:09:33;;;;;;;130.68;119.45;;;18.40;84.00;;;;;;5031672;28;20058;-76
2022/06/14 11:12:28;;;;;;;130.93;119.95;;;18.40;83.30;;;;;;5031744;28;20046;-75
2022/06/14 11:15:02;;;;;;;133.55;122.45;;;18.50;82.40;;;;;;5065116;28;20045;-76
2022/06/14 11:17:50;;;;;;;137.57;126.68;;;18.60;82.10;;;;;;5045210;28;20519;-77
2022/06/14 11:20:32;;;;;;;137.63;126.63;;;18.60;82.30;;;;;;5044930;28;20049;-76
2022/06/14 11:23:07;;;;;;;136.20;125.28;;;18.70;82.00;;;;;;5063889;28;20113;-78
2022/06/14 11:25:37;;;;;;;;;;;18.80;80.90;;;;;;5033240;28;20053;-78
2022/06/14 11:28:15;;;;;;;137.07;126.15;;;18.80;81.10;;;;;;5027445;28;19925;-78
2022/06/14 11:30:49;;;;;;;135.23;124.45;;;18.90;79.90;;;;;;5031347;28;20124;-76
2022/06/14 11:33:23;;;;;;;;;;;19.00;80.80;;;;;;5035827;28;20065;-77
2022/06/14 11:36:19;;;;;;;133.90;122.90;;;19.10;81.60;;;;;;5037010;28;19969;-77
2022/06/14 11:39:03;;;;;;;137.10;125.38;;;19.20;82.00;;;;;;5031591;28;20141;-77
2022/06/14 11:41:36;;;;;;;134.82;123.88;;;19.30;79.20;;;;;;5032834;28;20061;-77
2022/06/14 11:44:16;;;;;;;133.52;122.68;;;19.40;78.00;;;;;;5031480;28;20050;-77
2022/06/14 11:46:50;;;;;;;134.18;123.32;;;19.50;78.80;;;;;;5031322;28;20116;-77
2022/06/14 11:49:24;;;;;;;132.80;121.18;;;19.50;77.90;;;;;;5032547;28;20111;-77
2022/06/14 11:51:57;;;;;;;133.23;122.33;;;19.60;78.60;;;;;;5030305;28;20122;-77
2022/06/14 11:54:26;;;;;;;134.50;123.35;;;19.60;75.40;;;;;;5030242;28;20446;-77
2022/06/14 11:57:11;;;;;;;139.88;127.13;;;19.60;74.50;;;;;;5030496;28;20176;-77
2022/06/14 12:00:02;;;;;;;138.75;127.85;;;19.70;74.50;;;;;;5030882;28;20512;-77
2022/06/14 12:02:56;;;;;;;135.45;124.65;;;19.70;76.10;;;;;;5033221;28;20546;-77
2022/06/14 12:05:36;;;;;;;135.57;124.77;;;19.70;76.20;;;;;;5033066;28;20156;-77
2022/06/14 12:08:26;;;;;;;138.52;127.63;;;19.80;76.60;;;;;;5031710;28;20133;-77
2022/06/14 12:10:56;;;;;;;133.55;123.00;;;19.90;76.80;;;;;;5043487;28;20063;-77
2022/06/14 12:13:57;;;;;;;134.20;123.30;;;19.90;76.40;;;;;;5052937;28;20060;-77
2022/06/14 12:16:33;;;;;;;135.43;124.75;;;20.00;77.90;;;;;;5007774;28;20134;-77
2022/06/14 12:19:08;;;;;;;133.15;122.57;;;20.10;76.40;;;;;;5034515;28;20056;-77
2022/06/14 12:21:46;;;;;;;134.23;122.38;;;20.20;77.70;;;;;;5050210;28;20063;-77
2022/06/14 12:24:19;;;;;;;133.60;122.93;;;20.20;76.00;;;;;;5049000;28;20152;-77
2022/06/14 12:26:57;;;;;;;134.98;124.10;;;20.30;74.90;;;;;;5050340;28;20528;-77
2022/06/14 12:29:28;;;;;;;135.38;124.38;;;20.30;74.50;;;;;;5050496;28;20045;-77
2022/06/14 12:32:07;;;;;;;135.20;124.50;;;20.40;74.90;;;;;;5050809;28;20053;-77
2022/06/14 12:34:39;;;;;;;142.15;128.50;;;20.40;73.60;;;;;;5052527;28;20060;-77
2022/06/14 12:37:22;;;;;;;139.70;128.43;;;20.40;74.20;;;;;;5050582;28;20045;-78
2022/06/14 12:39:55;;;;;;;131.82;121.43;;;20.50;75.20;;;;;;5052356;28;20053;-77
2022/06/14 12:42:29;;;;;;;133.25;122.75;;;20.50;74.60;;;;;;5051418;28;20134;-77
2022/06/14 12:44:58;;;;;;;133.18;122.57;;;20.60;75.00;;;;;;5050994;28;20049;-77
2022/06/14 12:47:46;;;;;;;139.45;128.95;;;20.60;72.80;;;;;;5052049;28;20057;-77
2022/06/14 12:50:19;;;;;;;135.32;124.32;;;20.70;71.80;;;;;;5050738;28;20048;-77
2022/06/14 12:52:50;;;;;;;135.27;124.68;;;20.70;73.50;;;;;;5052384;28;20140;-77
2022/06/14 12:55:22;;;;;;;136.55;126.05;;;20.80;71.20;;;;;;5050818;28;20121;-76
2022/06/14 12:58:11;;;;;;;137.07;126.53;;;20.80;71.40;;;;;;5051406;28;20041;-76
2022/06/14 13:00:41;;;;;;;136.90;126.07;;;20.80;73.90;;;;;;5019170;28;20081;-76